Melilla, Spain

12:40 AM CEST on April 02, 2015 (GMT +0200)
Arwi | | Change Station
CLOSE
Current Station
Airport
Location: Nador/Arwi,
Elevation: 574 ft
Nearby Weather Stations

Elev 574 ft 34.99 °N, 3.03 °W | Updated 40 minutes ago

Mostly Cloudy
Mostly Cloudy
59 °F
Feels Like 59 °F
N
4
Wind Variable Wind from East

Today
High -- | Low -- °F
--% Chance of Precip.
Yesterday
High -- | Low -- °F
Precip. -- in
7:57 AM 8:33 PM
Waxing Gibbous, 94% visible
Pressure 30.24 in
Visibility 2.5 miles
Clouds Mostly Cloudy 800 ft
Dew Point 57 °F
Humidity 94%
Rainfall 0.00 in
Snow Depth Not available.
UV 0 out of 12
Pollen Not available.
Air Quality Not available.
Flu Activity Not available.
METAR GMMW 012200Z 08003KT 060V130 4000 BR BKN008 15/14 Q1024 NOSIG

More Conditions Fewer Conditions

Pressure 30.24 in
Visibility 2.5 miles
Clouds Mostly Cloudy 800 ft
Dew Point 57 °F
Humidity 94%
Rainfall 0.00 in
Snow Depth Not available.
UV 0 out of 12
Pollen Not available.
Air Quality Not available.
Flu Activity Not available.
METAR GMMW 012200Z 08003KT 060V130 4000 BR BKN008 15/14 Q1024 NOSIG

More Conditions Fewer Conditions

10-Day Weather Forecast

Almanac

Astronomy

Apr. 02, 2015 Rise Set
Actual Time
Civil Twilight
Nautical Twilight
Astronomical Twilight
Moon
Length of Visible Light
Length of Day
Tomorrow will be .
, % of the Moon is Illuminated

Today's Extremes

Country Highs Country Lows

Community

WunderPhotos

Upload Photos

1,810,096 photos uploaded!

WunderBlogs® & News

Nearby

Air Quality

  Air Quality AQ Index Pollutant
Not available.

Snow Depth

Station Depth Elevation

Earthquake Activity

City Distance Mag. Time & Date
Minimum magnitude displayed is 2.5.

Coastal Water Temperatures

Place Temperature

Stations

Nearby Weather Stations

Station Location Temp. Windchill Dew Point Humidity Wind Precip. Elev Updated Type